Time;durP1;ratioP1;P1;durP2;ratioP2;P2;SDS_P1;SDS_P2;PMS_P1;PMS_P2;Temp;Humidity;BMP_temperature;BMP_pressure;BME280_temperature;BME280_humidity;BME280_pressure;Samples;Min_cycle;Max_cycle;Signal;HPM_P1;HPM_P2
2023/03/08 00:01:48;;;;;;;8.95;0.93;;;-0.80;99.90;;;-2.62;81.60;99093.38;5006408;28;20044;-76
2023/03/08 00:04:17;;;;;;;5.72;0.73;;;-0.90;99.90;;;-2.62;81.51;99095.09;4992185;28;20041;-77
2023/03/08 00:06:43;;;;;;;6.13;0.70;;;-0.90;99.90;;;-2.65;81.79;99105.50;5006778;28;20072;-76
2023/03/08 00:09:09;;;;;;;8.55;1.05;;;-0.90;99.90;;;-2.65;81.91;99103.75;5012454;28;20125;-77
2023/03/08 00:11:35;;;;;;;9.05;1.00;;;-0.90;99.90;;;-2.65;82.01;99116.63;5000910;28;20021;-76
2023/03/08 00:14:02;;;;;;;10.82;1.10;;;-0.90;99.90;;;-2.65;82.29;99113.22;4987327;28;20059;-77
2023/03/08 00:16:28;;;;;;;7.88;0.88;;;-0.90;99.90;;;-2.65;82.62;99115.78;5019456;28;20069;-77
2023/03/08 00:18:59;;;;;;;10.27;1.45;;;-0.90;99.90;;;-2.65;83.09;99119.22;5019947;28;20490;-77
2023/03/08 00:21:25;;;;;;;12.52;1.38;;;-0.90;99.90;;;-2.63;83.12;99119.19;4977029;28;20064;-76
2023/03/08 00:23:53;;;;;;;12.00;1.30;;;-0.80;99.90;;;-2.60;83.39;99124.28;5027533;28;20041;-76
2023/03/08 00:26:18;;;;;;;8.13;1.50;;;-0.80;99.90;;;-2.60;83.26;99116.53;4986311;28;20056;-76
2023/03/08 00:28:52;;;;;;;9.18;1.60;;;-0.80;99.90;;;-2.61;83.64;99122.56;5003125;28;20413;-76
2023/03/08 00:31:18;;;;;;;8.73;1.40;;;-0.80;99.90;;;-2.62;83.28;99121.72;4992812;28;20509;-76
2023/03/08 00:33:44;;;;;;;5.78;1.38;;;-0.80;99.90;;;-2.60;83.89;99129.44;5011038;28;20054;-76
2023/03/08 00:36:17;;;;;;;8.18;1.50;;;-0.80;99.90;;;-2.58;84.25;99136.25;4999433;28;21047;-77
2023/03/08 00:38:44;;;;;;;9.80;1.20;;;-0.80;99.90;;;-2.60;83.89;99142.31;4997860;28;20120;-76
2023/03/08 00:41:10;;;;;;;5.53;1.20;;;-0.80;99.90;;;-2.61;84.24;99138.91;4987936;28;20033;-76
2023/03/08 00:43:37;;;;;;;11.43;1.50;;;-0.80;99.90;;;-2.60;84.07;99135.44;5008889;28;20045;-76
2023/03/08 00:46:04;;;;;;;8.98;1.52;;;-0.80;99.90;;;-2.61;84.21;99145.75;5013562;28;20029;-76
2023/03/08 00:48:36;;;;;;;9.40;1.80;;;-0.80;99.90;;;-2.63;84.78;99142.38;4977807;28;20040;-77
2023/03/08 00:51:02;;;;;;;11.35;2.55;;;-0.80;99.90;;;-2.63;84.79;99139.81;5005944;28;20117;-76
2023/03/08 00:53:28;;;;;;;14.07;1.67;;;-0.90;99.90;;;-2.63;85.11;99134.66;5008518;28;20430;-76
2023/03/08 00:56:05;;;;;;;10.27;1.30;;;-0.90;99.90;;;-2.62;85.22;99146.66;4995122;28;20029;-76
2023/03/08 00:58:32;;;;;;;7.22;1.52;;;-0.80;99.90;;;-2.62;85.71;99152.63;4996483;28;20060;-76
2023/03/08 01:00:58;;;;;;;13.65;1.70;;;-0.80;99.90;;;-2.63;85.39;99153.53;5014267;28;20041;-76
2023/03/08 01:03:32;;;;;;;10.00;1.35;;;-0.80;99.90;;;-2.63;85.85;99166.41;5022850;28;20555;-76
2023/03/08 01:06:03;;;;;;;13.30;1.65;;;-0.80;99.90;;;-2.63;85.97;99161.25;5028949;28;20094;-76
2023/03/08 01:08:29;;;;;;;10.77;1.90;;;-0.80;99.90;;;-2.62;86.04;99168.09;5014749;28;20070;-75
2023/03/08 01:10:59;;;;;;;12.20;1.73;;;-0.80;99.90;;;-2.60;86.09;99163.78;5024295;28;20033;-76
2023/03/08 01:13:32;;;;;;;9.75;1.42;;;-0.80;99.90;;;-2.60;86.19;99171.50;4992057;28;20115;-75
2023/03/08 01:15:58;;;;;;;12.63;1.60;;;-0.80;99.90;;;-2.59;86.29;99167.19;5019260;28;20033;-75
2023/03/08 01:18:24;;;;;;;8.60;1.60;;;-0.80;99.90;;;-2.59;86.64;99169.78;5027319;28;20043;-76
2023/03/08 01:21:02;;;;;;;20.02;1.73;;;-0.90;99.90;;;-2.59;86.71;99173.22;4998678;28;20567;-75
2023/03/08 01:23:29;;;;;;;13.38;2.13;;;-0.80;99.90;;;-2.60;86.30;99173.25;5002695;28;20117;-75
2023/03/08 01:26:05;;;;;;;12.65;1.63;;;-0.80;99.90;;;-2.60;86.86;99170.66;5020164;28;20055;-76
2023/03/08 01:28:33;;;;;;;11.05;2.03;;;-0.80;99.90;;;-2.60;86.90;99170.66;5010773;28;20037;-75
2023/03/08 01:31:20;;;;;;;10.80;1.52;;;-0.80;99.90;;;-2.63;86.61;99175.88;5021186;28;20082;-75
2023/03/08 01:33:47;;;;;;;10.05;1.45;;;-0.80;99.90;;;-2.65;86.58;99170.75;5019445;28;20030;-75
2023/03/08 01:36:17;;;;;;;14.70;1.65;;;-0.90;99.90;;;-2.69;87.49;99172.53;5021512;28;20094;-75
2023/03/08 01:38:44;;;;;;;10.60;1.77;;;-0.80;99.90;;;-2.69;87.39;99171.69;5013282;28;20030;-74
2023/03/08 01:41:21;;;;;;;10.80;1.80;;;-0.90;99.90;;;-2.71;87.93;99173.44;5022603;28;20024;-75
2023/03/08 01:43:48;;;;;;;12.25;1.33;;;-0.90;99.90;;;-2.74;87.63;99169.19;5011109;28;20036;-75
2023/03/08 01:46:26;;;;;;;11.50;1.45;;;-0.90;99.90;;;-2.73;87.96;99165.72;5029635;28;20040;-75
2023/03/08 01:49:26;;;;;;;7.78;1.50;;;-0.90;99.90;;;-2.75;87.92;99171.78;5013343;28;20045;-75
2023/03/08 01:52:01;;;;;;;12.27;1.40;;;-1.00;99.90;;;-2.78;88.18;99179.56;5035738;28;20524;-75
2023/03/08 01:54:48;;;;;;;14.02;1.67;;;-1.00;99.90;;;-2.85;87.65;99172.81;5031986;28;20116;-74
2023/03/08 01:57:38;;;;;;;12.18;1.75;;;-1.00;99.90;;;-2.88;88.33;99177.13;5016888;28;20029;-75
2023/03/08 02:00:21;;;;;;;13.00;1.98;;;-1.10;99.90;;;-2.91;88.19;99178.94;5016181;28;20382;-75
2023/03/08 02:02:57;;;;;;;7.65;1.45;;;-1.10;99.90;;;-2.93;88.63;99181.53;5005832;28;20025;-74
2023/03/08 02:05:25;;;;;;;22.23;1.95;;;-1.10;99.90;;;-2.95;89.17;99182.44;5003946;28;20042;-74
2023/03/08 02:07:50;;;;;;;15.88;1.40;;;-1.10;99.90;;;-2.99;89.01;99180.78;5018267;28;20561;-74
2023/03/08 02:10:17;;;;;;;11.73;1.50;;;-1.20;99.90;;;-2.99;89.52;99191.06;5020382;28;20029;-74
2023/03/08 02:12:44;;;;;;;16.02;1.20;;;-1.20;99.90;;;-3.00;89.63;99194.50;5014025;28;20113;-74
2023/03/08 02:15:12;;;;;;;11.65;1.45;;;-1.20;99.90;;;-3.01;90.03;99200.53;5015310;28;20768;-75
2023/03/08 02:17:41;;;;;;;14.73;1.60;;;-1.20;99.90;;;-3.00;90.35;99197.09;4993441;28;20056;-74
2023/03/08 02:20:18;;;;;;;12.20;1.30;;;-1.20;99.90;;;-2.99;90.27;99198.81;5024335;28;20072;-75
2023/03/08 02:22:45;;;;;;;11.05;1.42;;;-1.20;99.90;;;-3.01;90.52;99200.53;5030291;28;20028;-74
2023/03/08 02:25:17;;;;;;;8.38;1.08;;;-1.20;99.90;;;-3.02;90.20;99207.44;5033432;28;20068;-75
2023/03/08 02:27:46;;;;;;;14.57;1.63;;;-1.20;99.90;;;-3.05;90.79;99202.31;5023506;28;20098;-74
2023/03/08 02:30:16;;;;;;;12.40;1.75;;;-1.20;99.90;;;-3.06;90.64;99207.50;5031188;28;20029;-74
2023/03/08 02:32:42;;;;;;;12.57;1.50;;;-1.20;99.90;;;-3.08;90.66;99206.69;5032859;28;20467;-75
2023/03/08 02:35:08;;;;;;;12.70;1.65;;;-1.30;99.90;;;-3.11;91.09;99205.84;5025185;28;20032;-74
2023/03/08 02:37:35;;;;;;;8.43;1.58;;;-1.30;99.90;;;-3.10;91.22;99210.09;5032995;28;20669;-74
2023/03/08 02:40:01;;;;;;;18.45;1.67;;;-1.30;99.90;;;-3.10;91.18;99194.66;5026290;28;20044;-74
2023/03/08 02:42:26;;;;;;;11.80;1.27;;;-1.30;99.90;;;-3.12;91.49;99198.97;4998494;28;20051;-74
2023/03/08 02:44:52;;;;;;;11.95;1.60;;;-1.30;99.90;;;-3.12;91.95;99201.56;5047679;28;20057;-74
2023/03/08 02:47:18;;;;;;;8.52;1.35;;;-1.30;99.90;;;-3.13;91.66;99205.03;5033198;28;20150;-74
2023/03/08 02:49:44;;;;;;;12.68;1.65;;;-1.30;99.90;;;-3.11;91.89;99204.97;5024209;28;20044;-74
2023/03/08 02:52:09;;;;;;;13.23;1.38;;;-1.30;99.90;;;-3.12;91.71;99206.72;5031913;28;20025;-73
2023/03/08 02:54:35;;;;;;;17.17;1.63;;;-1.30;99.90;;;-3.11;91.90;99210.13;5032982;28;20502;-73
2023/03/08 02:57:03;;;;;;;10.07;1.42;;;-1.30;99.90;;;-3.12;92.14;99214.44;5023837;28;20136;-73
2023/03/08 02:59:31;;;;;;;15.80;1.50;;;-1.30;99.90;;;-3.12;92.16;99214.44;5009826;28;20087;-74
2023/03/08 03:01:58;;;;;;;12.02;1.40;;;-1.30;99.90;;;-3.13;92.25;99204.19;5003743;28;20037;-74
2023/03/08 03:04:27;;;;;;;13.10;1.70;;;-1.30;99.90;;;-3.14;92.16;99213.59;5031572;28;20045;-74
2023/03/08 03:06:53;;;;;;;15.60;1.60;;;-1.30;99.90;;;-3.15;91.97;99219.63;5013686;28;20062;-73
2023/03/08 03:09:19;;;;;;;11.07;1.23;;;-1.40;99.90;;;-3.17;92.17;99208.50;5029182;28;20029;-74
2023/03/08 03:11:44;;;;;;;15.85;1.20;;;-1.40;99.90;;;-3.21;91.66;99203.44;5023218;28;20052;-74
2023/03/08 03:14:10;;;;;;;14.25;1.40;;;-1.40;99.90;;;-3.22;92.23;99207.72;5025722;28;20021;-74
2023/03/08 03:16:36;;;;;;;14.73;1.75;;;-1.40;99.90;;;-3.21;92.23;99208.59;4998655;28;20048;-74
2023/03/08 03:19:03;;;;;;;10.15;1.60;;;-1.40;99.90;;;-3.23;92.14;99203.44;5031598;28;20029;-74
2023/03/08 03:21:28;;;;;;;4.70;1.33;;;-1.40;99.90;;;-3.23;92.45;99213.75;5013402;28;20062;-74
2023/03/08 03:23:55;;;;;;;8.27;1.40;;;-1.40;99.90;;;-3.24;92.20;99222.38;5020802;28;20061;-74
2023/03/08 03:26:22;;;;;;;12.77;1.42;;;-1.40;99.90;;;-3.26;92.51;99211.22;5033428;28;20040;-74
2023/03/08 03:28:51;;;;;;;9.98;1.52;;;-1.40;99.90;;;-3.25;92.31;99218.06;4998156;28;20041;-73
2023/03/08 03:31:20;;;;;;;19.80;2.20;;;-1.50;99.90;;;-3.25;92.64;99215.50;5008250;28;20037;-75
2023/03/08 03:33:48;;;;;;;9.73;1.20;;;-1.50;99.90;;;-3.26;92.15;99218.09;5035500;28;20086;-73
2023/03/08 03:36:18;;;;;;;11.48;1.80;;;-1.50;99.90;;;-3.29;92.73;99216.41;5031972;28;20108;-74
2023/03/08 03:38:44;;;;;;;9.98;1.48;;;-1.50;99.90;;;-3.32;92.82;99217.31;4991621;28;20080;-74
2023/03/08 03:41:16;;;;;;;8.27;1.60;;;-1.50;99.90;;;-3.32;92.50;99222.47;5020232;28;20040;-74
2023/03/08 03:43:42;;;;;;;10.77;1.45;;;-1.50;99.90;;;-3.33;92.87;99232.78;5021413;28;20041;-74
2023/03/08 03:46:14;;;;;;;18.98;1.85;;;-1.50;99.90;;;-3.35;92.54;99232.81;5009148;28;20038;-74
2023/03/08 03:48:41;;;;;;;12.30;2.25;;;-1.60;99.90;;;-3.37;92.82;99242.28;5015329;28;20629;-74
2023/03/08 03:51:15;;;;;;;14.82;1.50;;;-1.60;99.90;;;-3.40;92.57;99234.56;4998197;28;20056;-73
2023/03/08 03:53:41;;;;;;;6.95;1.40;;;-1.60;99.90;;;-3.43;93.11;99249.22;5030111;28;20045;-73
2023/03/08 03:56:17;;;;;;;19.52;1.90;;;-1.60;99.90;;;-3.47;93.06;99239.84;5030645;28;20048;-73
2023/03/08 03:58:43;;;;;;;10.85;2.15;;;-1.60;99.90;;;-3.46;93.42;99239.81;5015770;28;20541;-73
2023/03/08 04:01:23;;;;;;;13.85;2.05;;;-1.60;99.90;;;-3.44;92.95;99242.38;5021983;28;20033;-74
2023/03/08 04:03:50;;;;;;;12.35;2.42;;;-1.60;99.90;;;-3.46;93.78;99257.81;5022649;28;20052;-73
2023/03/08 04:06:24;;;;;;;12.82;2.58;;;-1.60;99.90;;;-3.42;93.81;99256.91;5004933;28;20111;-73
2023/03/08 04:09:11;;;;;;;12.55;2.60;;;-1.60;99.90;;;-3.41;93.91;99258.63;5031771;28;20045;-73
2023/03/08 04:11:38;;;;;;;9.20;2.90;;;-1.60;99.90;;;-3.39;94.35;99261.16;5019034;28;20033;-75
2023/03/08 04:14:05;;;;;;;15.50;3.42;;;-1.60;99.90;;;-3.35;94.97;99262.81;5020670;28;20029;-73
2023/03/08 04:16:34;;;;;;;14.85;3.60;;;-1.50;99.90;;;-3.33;94.79;99267.06;4994287;28;20041;-73
2023/03/08 04:19:05;;;;;;;12.90;3.85;;;-1.50;99.90;;;-3.28;95.26;99272.19;5022990;28;20084;-73
2023/03/08 04:21:31;;;;;;;15.55;4.22;;;-1.50;99.90;;;-3.25;95.16;99277.28;5032187;28;20072;-74
2023/03/08 04:23:58;;;;;;;21.02;4.13;;;-1.50;99.90;;;-3.26;95.32;99280.75;5013611;28;20071;-74
2023/03/08 04:26:24;;;;;;;15.57;4.88;;;-1.50;99.90;;;-3.28;94.88;99287.63;5023969;28;20055;-74
2023/03/08 04:28:50;;;;;;;20.35;5.47;;;-1.50;99.90;;;-3.29;94.67;99288.50;5029649;28;20042;-73
2023/03/08 04:31:28;;;;;;;22.45;5.63;;;-1.50;99.90;;;-3.30;94.86;99297.09;5038482;28;20363;-73
2023/03/08 04:33:57;;;;;;;19.40;5.07;;;-1.50;99.90;;;-3.35;94.46;99293.72;5010890;28;20120;-74
2023/03/08 04:36:23;;;;;;;29.38;5.68;;;-1.60;99.90;;;-3.35;94.83;99298.84;5015682;28;20453;-74
2023/03/08 04:38:50;;;;;;;26.70;6.70;;;-1.60;99.90;;;-3.36;94.92;99292.88;5009201;28;20189;-75
2023/03/08 04:41:16;;;;;;;21.27;6.93;;;-1.60;99.90;;;-3.33;95.22;99297.13;5001695;28;20127;-74
2023/03/08 04:43:55;;;;;;;22.02;7.28;;;-1.60;99.90;;;-3.32;94.97;99283.41;5023643;28;20037;-74
2023/03/08 04:46:26;;;;;;;21.33;6.97;;;-1.60;99.90;;;-3.30;95.41;99285.06;5028668;28;20033;-74
2023/03/08 04:48:54;;;;;;;20.33;7.15;;;-1.50;99.90;;;-3.25;95.53;99295.31;5022198;28;20033;-75
2023/03/08 04:51:23;;;;;;;18.02;7.70;;;-1.50;99.90;;;-3.17;95.11;99292.63;5013028;28;20029;-74
2023/03/08 04:53:49;;;;;;;21.20;7.72;;;-1.40;99.90;;;-3.08;95.46;99296.81;5006875;28;20029;-74
2023/03/08 04:56:16;;;;;;;18.95;7.50;;;-1.40;99.90;;;-2.99;95.41;99301.81;4994428;28;20048;-73
2023/03/08 04:58:43;;;;;;;17.45;7.25;;;-1.30;99.90;;;-2.93;95.97;99288.84;5003216;28;20028;-73
2023/03/08 05:01:16;;;;;;;17.60;7.43;;;-1.20;99.90;;;-2.86;96.03;99287.03;5005328;28;20104;-74
2023/03/08 05:03:43;;;;;;;23.95;8.38;;;-1.20;99.90;;;-2.77;96.01;99292.88;5012600;28;20068;-74
2023/03/08 05:06:10;;;;;;;25.13;8.13;;;-1.10;99.90;;;-2.68;95.53;99291.88;5023155;28;20025;-73
2023/03/08 05:08:36;;;;;;;20.45;8.45;;;-1.00;99.90;;;-2.61;95.65;99297.78;5020382;28;20043;-74
2023/03/08 05:11:03;;;;;;;24.63;9.15;;;-0.90;99.90;;;-2.55;95.36;99308.00;5006477;28;20029;-74
2023/03/08 05:13:37;;;;;;;20.60;8.20;;;-0.90;99.90;;;-2.52;95.14;99311.41;5020089;28;20032;-73
2023/03/08 05:16:05;;;;;;;21.27;8.30;;;-0.80;99.90;;;-2.50;95.40;99313.97;5019155;28;20121;-74
2023/03/08 05:18:31;;;;;;;15.25;7.60;;;-0.80;99.90;;;-2.47;94.90;99311.31;5030407;28;20115;-74
2023/03/08 05:21:05;;;;;;;18.23;7.85;;;-0.80;99.90;;;-2.41;95.35;99312.97;5005126;28;20036;-73
2023/03/08 05:23:31;;;;;;;18.75;7.30;;;-0.70;99.90;;;-2.38;95.23;99311.16;5030484;28;20029;-74
2023/03/08 05:26:00;;;;;;;16.52;7.05;;;-0.70;99.90;;;-2.38;95.44;99311.16;5021352;28;20108;-74
2023/03/08 05:28:29;;;;;;;17.33;7.00;;;-0.70;99.90;;;-2.39;95.47;99304.31;5011929;28;20036;-74
2023/03/08 05:31:17;;;;;;;19.45;7.50;;;-0.70;99.90;;;-2.38;95.72;99308.59;5016015;28;20030;-73
2023/03/08 05:33:45;;;;;;;20.13;6.95;;;-0.70;99.90;;;-2.36;95.39;99311.16;5013814;28;20327;-73
2023/03/08 05:36:12;;;;;;;12.02;6.10;;;-0.60;99.90;;;-2.35;95.65;99315.44;5031240;28;20026;-74
2023/03/08 05:38:40;;;;;;;22.60;6.47;;;-0.60;99.90;;;-2.31;96.03;99314.47;5001881;28;20064;-74
2023/03/08 05:41:11;;;;;;;18.85;6.13;;;-0.60;99.90;;;-2.29;95.91;99308.44;4997527;28;20031;-73
2023/03/08 05:43:37;;;;;;;22.42;6.07;;;-0.60;99.90;;;-2.24;96.17;99302.38;5021381;28;20045;-74
2023/03/08 05:46:13;;;;;;;21.35;5.97;;;-0.50;99.90;;;-2.19;95.97;99310.88;5003178;28;20159;-74
2023/03/08 05:48:39;;;;;;;14.40;5.70;;;-0.50;99.90;;;-2.16;95.45;99310.81;5028866;28;20075;-73
2023/03/08 05:51:14;;;;;;;19.45;6.22;;;-0.50;99.90;;;-2.12;96.01;99313.28;5023013;28;20068;-74
2023/03/08 05:53:41;;;;;;;19.55;6.00;;;-0.50;99.90;;;-2.10;95.77;99321.84;5019872;28;20029;-73
2023/03/08 05:56:12;;;;;;;13.52;5.40;;;-0.40;99.90;;;-2.10;95.84;99321.00;5014064;28;20025;-74
2023/03/08 05:58:41;;;;;;;18.02;5.75;;;-0.40;99.90;;;-2.10;95.65;99323.59;5021957;28;20084;-74
2023/03/08 06:01:18;;;;;;;18.65;5.43;;;-0.40;99.90;;;-2.06;95.23;99328.66;5029262;28;20033;-74
2023/03/08 06:03:47;;;;;;;19.98;5.32;;;-0.40;99.90;;;-2.03;95.61;99332.06;5028928;28;20041;-73
2023/03/08 06:06:14;;;;;;;16.42;5.88;;;-0.30;99.90;;;-1.96;95.40;99324.22;5034314;28;20029;-73
2023/03/08 06:08:40;;;;;;;13.98;5.70;;;-0.30;99.90;;;-1.86;94.92;99328.31;5031372;28;20060;-74
2023/03/08 06:11:07;;;;;;;16.20;5.35;;;-0.30;99.90;;;-1.77;94.41;99329.00;5014277;28;20383;-74
2023/03/08 06:13:34;;;;;;;17.70;5.90;;;-0.20;99.90;;;-1.55;94.05;99339.81;5028373;28;20025;-74
2023/03/08 06:16:01;;;;;;;19.10;5.32;;;-0.10;99.90;;;-1.08;93.31;99337.97;5019569;28;20034;-73
2023/03/08 06:18:28;;;;;;;18.92;5.00;;;0.10;99.90;;;-0.53;91.52;99336.72;5022130;28;20046;-73
2023/03/08 06:21:15;;;;;;;15.10;5.10;;;0.30;99.90;;;0.21;89.66;99340.06;5035171;28;20515;-73
2023/03/08 06:23:41;;;;;;;12.57;4.68;;;0.70;99.90;;;2.15;85.48;99363.63;5013460;28;20553;-74
2023/03/08 06:26:09;;;;;;;13.40;5.28;;;1.40;99.90;;;4.62;78.26;99384.47;5022204;28;20585;-74
2023/03/08 06:28:35;;;;;;;14.05;4.10;;;2.20;99.90;;;5.80;71.16;99382.56;5035898;28;20101;-74
2023/03/08 06:31:02;;;;;;;13.90;4.65;;;3.10;99.90;;;6.51;66.64;99374.69;5021054;28;20029;-74
2023/03/08 06:33:31;;;;;;;13.32;3.78;;;3.60;99.90;;;5.02;66.33;99371.41;5021485;28;20536;-74
2023/03/08 06:36:12;;;;;;;16.00;4.57;;;3.90;99.90;;;5.60;67.12;99386.13;5033255;28;20041;-74
2023/03/08 06:38:39;;;;;;;13.25;3.95;;;4.20;99.90;;;5.23;66.08;99380.03;5021603;28;20025;-74
2023/03/08 06:41:07;;;;;;;12.13;4.03;;;4.20;99.90;;;3.46;67.99;99371.88;5019524;28;20442;-77
2023/03/08 06:43:34;;;;;;;21.30;4.05;;;4.00;99.90;;;2.52;70.95;99362.34;5034479;28;20049;-74
2023/03/08 06:46:10;;;;;;;11.55;3.85;;;3.60;99.90;;;1.71;73.01;99365.94;5010995;28;20041;-74
2023/03/08 06:48:36;;;;;;;7.53;3.80;;;3.10;99.90;;;1.29;75.25;99373.31;5010895;28;20114;-74
2023/03/08 06:51:03;;;;;;;10.45;4.03;;;2.90;99.90;;;0.90;76.68;99379.59;4978155;28;20037;-74
2023/03/08 06:53:29;;;;;;;12.13;4.07;;;2.60;99.90;;;0.67;78.24;99382.00;5032293;28;20049;-74
2023/03/08 06:55:56;;;;;;;12.82;4.55;;;2.30;99.90;;;0.45;79.64;99377.41;5015789;28;20039;-74
2023/03/08 06:58:22;;;;;;;13.55;5.47;;;2.10;99.90;;;0.34;80.46;99372.50;5020508;28;20509;-74
2023/03/08 07:00:51;;;;;;;22.88;5.80;;;2.00;99.90;;;0.27;81.17;99372.72;4991077;28;20021;-74
2023/03/08 07:03:16;;;;;;;15.07;5.20;;;1.90;99.90;;;0.17;82.06;99372.97;5030800;28;20072;-74
2023/03/08 07:05:42;;;;;;;18.20;5.30;;;1.80;99.90;;;0.09;82.86;99376.66;5026870;28;20121;-74
2023/03/08 07:08:08;;;;;;;18.13;6.45;;;1.80;99.90;;;0.23;83.28;99376.28;5034100;28;20026;-74
2023/03/08 07:10:34;;;;;;;16.05;6.20;;;1.80;99.90;;;0.20;83.76;99385.81;5033948;28;20032;-74
2023/03/08 07:13:00;;;;;;;12.82;6.75;;;1.70;99.90;;;0.21;84.46;99378.91;5016776;28;20033;-74
2023/03/08 07:15:26;;;;;;;14.90;7.32;;;1.80;99.90;;;0.13;85.19;99373.94;5000813;28;20547;-74
2023/03/08 07:17:55;;;;;;;19.60;7.30;;;1.70;99.90;;;0.07;85.04;99371.50;5018679;28;20030;-75
2023/03/08 07:20:24;;;;;;;18.00;8.10;;;1.70;99.90;;;0.07;85.54;99371.50;5014267;28;20562;-74
2023/03/08 07:22:50;;;;;;;18.58;8.38;;;1.70;99.90;;;0.07;85.79;99378.41;5031445;28;20048;-74
2023/03/08 07:25:18;;;;;;;21.38;9.05;;;1.70;99.90;;;0.09;86.07;99385.25;5029840;28;20048;-75
2023/03/08 07:27:45;;;;;;;20.30;8.35;;;1.70;99.90;;;0.09;86.87;99380.06;5033252;28;20091;-74
2023/03/08 07:30:14;;;;;;;15.77;8.68;;;1.70;99.90;;;0.13;86.80;99386.88;5025142;28;20040;-74
2023/03/08 07:32:43;;;;;;;17.35;8.93;;;1.70;99.90;;;0.14;87.00;99383.38;5013943;28;20025;-74
2023/03/08 07:35:13;;;;;;;19.67;9.55;;;1.80;99.90;;;0.33;87.36;99380.34;5024815;28;20036;-74
2023/03/08 07:37:40;;;;;;;21.17;9.45;;;1.80;99.90;;;0.61;86.92;99383.88;5029680;28;20063;-74
2023/03/08 07:40:07;;;;;;;17.05;9.43;;;2.00;99.90;;;0.87;86.65;99389.22;5030793;28;20092;-74
2023/03/08 07:42:33;;;;;;;18.05;9.50;;;2.20;99.90;;;1.10;86.23;99379.06;5034806;28;20042;-74
2023/03/08 07:44:59;;;;;;;17.25;9.10;;;2.80;99.90;;;1.52;84.77;99389.00;5010591;28;20045;-74
2023/03/08 07:47:24;;;;;;;19.02;9.90;;;2.70;99.90;;;3.28;83.28;99395.09;5023071;28;20557;-74
2023/03/08 07:49:50;;;;;;;15.18;8.48;;;3.60;99.90;;;5.39;77.38;99401.88;4998652;28;20598;-74
2023/03/08 07:52:18;;;;;;;13.82;8.25;;;4.60;99.90;;;4.97;73.78;99392.47;5013304;28;20040;-74
2023/03/08 07:54:44;;;;;;;16.52;8.50;;;5.20;99.90;;;4.42;73.08;99380.09;5019478;28;20033;-74
2023/03/08 07:57:13;;;;;;;15.45;8.43;;;5.20;99.90;;;3.76;73.33;99375.03;4998907;28;20067;-74
2023/03/08 07:59:40;;;;;;;16.60;9.07;;;5.00;99.90;;;3.41;74.04;99376.41;5030545;28;20746;-74
2023/03/08 08:02:11;;;;;;;12.85;8.32;;;4.70;99.90;;;2.93;75.40;99375.59;5030910;28;20090;-74
2023/03/08 08:04:37;;;;;;;22.33;9.45;;;4.40;99.90;;;2.48;76.29;99371.13;5030413;28;20037;-74
2023/03/08 08:07:03;;;;;;;17.55;9.60;;;4.00;99.90;;;2.02;77.83;99383.09;5034685;28;20034;-74
2023/03/08 08:09:29;;;;;;;24.42;10.43;;;3.70;99.90;;;1.85;78.91;99383.66;5020958;28;20086;-74
2023/03/08 08:11:55;;;;;;;20.20;9.52;;;3.70;99.90;;;1.56;79.74;99385.44;5027934;28;20449;-74
2023/03/08 08:14:23;;;;;;;19.23;9.80;;;3.30;99.90;;;1.52;80.54;99395.97;4998525;28;20124;-75
2023/03/08 08:16:49;;;;;;;22.40;10.77;;;3.20;99.90;;;1.40;81.24;99392.84;5006926;28;20405;-75
2023/03/08 08:19:15;;;;;;;20.70;10.05;;;3.00;99.90;;;1.24;81.71;99394.19;4997820;28;20070;-74
2023/03/08 08:21:41;;;;;;;19.20;9.90;;;2.90;99.90;;;1.11;82.27;99390.25;5026654;28;20116;-74
2023/03/08 08:24:07;;;;;;;22.83;11.30;;;2.90;99.90;;;1.12;82.85;99390.19;5029227;28;20045;-75
2023/03/08 08:26:35;;;;;;;19.85;9.77;;;2.80;99.90;;;1.02;83.21;99393.97;5029180;28;20116;-75
2023/03/08 08:29:01;;;;;;;17.65;9.40;;;2.70;99.90;;;0.92;83.53;99392.53;5028220;28;20038;-75
2023/03/08 08:31:29;;;;;;;16.63;9.75;;;2.60;99.90;;;0.80;83.75;99406.69;5021769;28;20037;-76
2023/03/08 08:33:57;;;;;;;17.15;10.00;;;2.50;99.90;;;0.74;84.26;99406.88;5023959;28;20827;-75
2023/03/08 08:36:23;;;;;;;16.17;10.00;;;2.40;99.90;;;0.74;84.46;99405.13;5012607;28;20037;-75
2023/03/08 08:38:49;;;;;;;20.75;10.70;;;2.40;99.90;;;0.72;84.51;99408.66;5031891;28;20045;-74
2023/03/08 08:41:18;;;;;;;17.58;10.15;;;2.40;99.90;;;0.73;84.50;99407.75;5015443;28;20509;-75
2023/03/08 08:43:45;;;;;;;17.83;9.13;;;2.40;99.90;;;0.68;84.79;99401.84;4994040;28;20042;-75
2023/03/08 08:46:12;;;;;;;18.58;9.35;;;2.30;99.90;;;0.70;84.77;99413.84;5003890;28;20033;-75
2023/03/08 08:48:38;;;;;;;26.92;14.13;;;2.40;99.90;;;0.73;84.61;99405.16;4987684;28;20068;-75
2023/03/08 08:51:11;;;;;;;20.80;10.55;;;2.40;99.90;;;0.75;84.49;99411.13;5005329;28;20116;-75
2023/03/08 08:53:37;;;;;;;18.33;10.43;;;2.40;99.90;;;0.75;84.16;99395.59;5029425;28;20044;-75
2023/03/08 08:56:29;;;;;;;17.17;8.77;;;2.40;99.90;;;0.85;84.29;99396.19;5014680;28;20040;-75
2023/03/08 08:58:58;;;;;;;18.52;9.60;;;2.40;99.90;;;0.91;83.79;99396.03;5006476;28;20025;-75
2023/03/08 09:01:28;;;;;;;16.67;8.55;;;2.50;99.90;;;0.91;83.71;99396.88;5035360;28;20117;-75
2023/03/08 09:03:54;;;;;;;22.60;10.45;;;2.50;99.90;;;0.90;83.93;99389.97;5005726;28;20730;-75
2023/03/08 09:06:25;;;;;;;15.52;9.90;;;2.50;99.90;;;1.06;83.68;99389.53;5010879;28;20065;-75
2023/03/08 09:08:54;;;;;;;20.10;9.82;;;2.60;99.90;;;1.16;83.22;99391.81;5018130;28;20048;-74
2023/03/08 09:11:21;;;;;;;18.33;9.75;;;2.70;99.90;;;1.28;82.86;99395.81;5030838;28;20040;-74
2023/03/08 09:13:47;;;;;;;14.10;9.73;;;2.80;99.90;;;1.50;82.28;99397.75;5031171;28;20076;-74
2023/03/08 09:16:28;;;;;;;19.98;9.90;;;2.90;99.90;;;1.58;81.10;99400.97;5033001;28;20040;-74
2023/03/08 09:19:00;;;;;;;17.30;10.10;;;3.00;99.90;;;1.69;80.96;99401.47;5033757;28;20045;-74
2023/03/08 09:21:28;;;;;;;18.17;9.55;;;3.10;99.90;;;1.64;80.60;99385.19;5028442;28;20037;-75
2023/03/08 09:24:08;;;;;;;14.98;8.52;;;3.10;99.90;;;1.59;80.39;99392.25;5034584;28;20036;-75
2023/03/08 09:26:34;;;;;;;13.10;8.60;;;3.10;99.90;;;1.59;79.97;99394.84;5021272;28;20032;-73
2023/03/08 09:29:06;;;;;;;10.80;7.07;;;3.10;99.90;;;1.48;80.16;99395.19;5015998;28;20029;-74
2023/03/08 09:31:41;;;;;;;14.00;7.60;;;3.10;99.90;;;1.50;79.52;99402.94;5032619;28;20494;-74
2023/03/08 09:34:14;;;;;;;15.88;7.93;;;3.00;99.90;;;1.50;79.39;99403.78;5015602;28;20137;-74
2023/03/08 09:36:44;;;;;;;14.55;9.20;;;3.00;99.90;;;1.56;79.53;99400.16;5033010;28;20017;-75
2023/03/08 09:39:16;;;;;;;16.15;9.02;;;3.10;99.90;;;1.60;79.48;99406.94;5036751;28;20104;-74
2023/03/08 09:41:57;;;;;;;19.42;8.60;;;3.10;99.90;;;1.62;79.66;99397.34;5024330;28;20094;-75
2023/03/08 09:45:04;;;;;;;14.55;8.52;;;3.10;99.90;;;1.68;79.30;99404.94;5019954;28;20061;-75
2023/03/08 09:48:03;;;;;;;;;;;3.10;99.90;;;1.71;79.09;99399.69;5031788;28;20397;-74
2023/03/08 09:50:55;;;;;;;15.77;7.35;;;3.20;99.90;;;1.78;78.93;99398.56;5021889;28;19920;-75
2023/03/08 09:53:46;;;;;;;13.38;6.03;;;3.20;99.90;;;1.79;78.42;99397.69;5027109;28;20170;-74
2023/03/08 09:56:47;;;;;;;9.18;5.40;;;3.30;99.90;;;1.78;78.42;99393.38;5018817;28;20074;-74
2023/03/08 09:59:39;;;;;;;12.07;5.63;;;3.30;99.90;;;1.77;77.61;99393.41;5028816;28;20060;-75
2023/03/08 10:02:46;;;;;;;13.85;6.25;;;3.30;99.90;;;1.82;77.56;99397.59;5038215;28;20037;-75
2023/03/08 10:05:48;;;;;;;14.45;5.95;;;3.30;99.90;;;1.87;77.94;99384.44;5022171;28;21138;-75
2023/03/08 10:08:31;;;;;;;12.68;6.43;;;3.30;99.90;;;1.89;77.70;99393.03;5022555;28;20170;-75
2023/03/08 10:11:00;;;;;;;11.15;5.90;;;3.30;99.90;;;1.88;78.26;99399.16;5031756;28;20490;-75
2023/03/08 10:13:49;;;;;;;12.60;6.35;;;3.40;99.90;;;1.90;78.08;99404.25;5026850;28;20099;-75
2023/03/08 10:16:33;;;;;;;10.48;6.40;;;3.40;99.90;;;1.93;78.14;99409.38;4999777;28;20396;-74
2023/03/08 10:19:28;;;;;;;9.73;5.85;;;3.40;99.90;;;1.92;77.79;99405.91;5007568;28;20045;-74
2023/03/08 10:21:59;;;;;;;9.95;5.72;;;3.40;99.90;;;1.95;77.17;99404.97;5023579;28;20444;-73
2023/03/08 10:24:38;;;;;;;20.42;5.80;;;3.40;99.90;;;1.97;77.00;99398.00;5020099;28;20037;-75
2023/03/08 10:27:27;;;;;;;11.90;5.85;;;3.50;99.90;;;2.04;77.14;99396.88;5014567;28;20041;-75
2023/03/08 10:29:58;;;;;;;10.18;6.00;;;3.50;99.90;;;2.09;76.81;99394.13;5008624;28;20120;-76
2023/03/08 10:32:25;;;;;;;13.43;5.80;;;3.50;99.90;;;2.14;76.78;99400.88;5000135;28;20033;-77